createdAt,value
2018-06-11T00:01:58.478Z,25.57
2018-06-11T00:04:27.496Z,25.80
2018-06-11T00:06:56.428Z,25.72
2018-06-11T00:09:25.409Z,25.85
2018-06-11T00:11:54.334Z,25.63
2018-06-11T00:14:23.325Z,25.88
2018-06-11T00:16:52.267Z,25.88
2018-06-11T00:19:21.249Z,25.86
2018-06-11T00:21:50.213Z,25.79
2018-06-11T00:24:19.194Z,24.66
2018-06-11T00:26:48.125Z,25.12
2018-06-11T00:29:17.144Z,25.35
2018-06-11T00:31:46.074Z,25.52
2018-06-11T00:34:15.106Z,25.54
2018-06-11T00:36:44.041Z,25.66
2018-06-11T00:39:13.017Z,25.49
2018-06-11T00:41:42.050Z,25.61
2018-06-11T00:44:11.002Z,25.17
2018-06-11T00:46:39.993Z,25.16
2018-06-11T00:49:08.970Z,24.76
2018-06-11T00:51:37.914Z,24.83
2018-06-11T00:54:07.140Z,24.84
2018-06-11T00:56:36.130Z,24.92
2018-06-11T00:59:05.135Z,24.76
2018-06-11T01:01:34.148Z,24.75
2018-06-11T01:04:03.399Z,24.64
2018-06-11T01:06:32.387Z,24.60
2018-06-11T01:09:02.387Z,24.35
2018-06-11T01:11:31.363Z,24.56
2018-06-11T01:14:00.318Z,24.33
2018-06-11T01:16:29.310Z,24.08
2018-06-11T01:18:58.250Z,24.28
2018-06-11T01:21:27.257Z,24.36
2018-06-11T01:23:56.210Z,24.07
2018-06-11T01:26:25.240Z,24.11
2018-06-11T01:28:54.184Z,23.74
2018-06-11T01:31:23.173Z,23.56
2018-06-11T01:33:52.095Z,23.43
2018-06-11T01:36:21.086Z,23.35
2018-06-11T01:38:50.063Z,23.20
2018-06-11T01:41:19.006Z,23.23
2018-06-11T01:43:47.963Z,23.41
2018-06-11T01:46:16.930Z,23.40
2018-06-11T01:48:45.842Z,23.27
2018-06-11T01:51:14.783Z,23.27
2018-06-11T01:53:43.715Z,23.10
2018-06-11T01:56:12.673Z,23.02
2018-06-11T01:58:41.586Z,22.80
2018-06-11T02:01:10.603Z,23.12
2018-06-11T02:03:39.533Z,23.18
2018-06-11T02:06:08.651Z,22.96
2018-06-11T02:08:37.615Z,22.89
2018-06-11T02:11:06.624Z,23.11
2018-06-11T02:13:35.596Z,23.26
2018-06-11T02:16:04.546Z,23.44
2018-06-11T02:18:33.576Z,23.13
2018-06-11T02:21:02.612Z,23.07
2018-06-11T02:23:31.599Z,23.28
2018-06-11T02:26:00.523Z,23.43
2018-06-11T02:28:29.495Z,23.20
2018-06-11T02:30:58.439Z,23.29
2018-06-11T02:33:27.426Z,23.06
2018-06-11T02:35:56.366Z,23.10
2018-06-11T02:38:25.364Z,23.23
2018-06-11T02:40:54.297Z,23.14
2018-06-11T02:43:23.298Z,23.00
2018-06-11T02:45:52.222Z,23.08
2018-06-11T02:48:21.210Z,22.98
2018-06-11T02:50:50.141Z,23.16
2018-06-11T02:53:19.137Z,22.93
2018-06-11T02:55:48.056Z,23.19
2018-06-11T02:58:17.044Z,23.02
2018-06-11T03:00:46.017Z,22.98
2018-06-11T03:03:14.990Z,23.06
2018-06-11T03:05:43.906Z,23.03
2018-06-11T03:08:12.924Z,22.75
2018-06-11T03:10:41.874Z,22.80
2018-06-11T03:13:10.853Z,22.67
2018-06-11T03:15:39.888Z,22.64
2018-06-11T03:18:08.870Z,22.91
2018-06-11T03:20:37.819Z,22.82
2018-06-11T03:23:06.830Z,22.72
2018-06-11T03:25:35.758Z,22.72
2018-06-11T03:28:04.779Z,22.72
2018-06-11T03:30:33.743Z,22.80
2018-06-11T03:33:02.757Z,22.64
2018-06-11T03:35:31.703Z,22.79
2018-06-11T03:38:00.662Z,22.73
2018-06-11T03:40:29.573Z,22.82
2018-06-11T03:42:58.577Z,22.83
2018-06-11T03:45:27.497Z,22.75
2018-06-11T03:47:56.487Z,22.91
2018-06-11T03:50:25.419Z,22.75
2018-06-11T03:52:54.422Z,22.75
2018-06-11T03:55:23.374Z,22.81
2018-06-11T03:57:52.512Z,22.60
2018-06-11T04:00:21.422Z,22.71
2018-06-11T04:02:50.362Z,22.82
2018-06-11T04:05:19.314Z,22.82
2018-06-11T04:07:48.261Z,22.91
2018-06-11T04:10:17.252Z,22.75
2018-06-11T04:12:46.193Z,22.56
2018-06-11T04:15:15.203Z,22.89
2018-06-11T04:17:44.159Z,22.90
2018-06-11T04:20:13.132Z,22.74
2018-06-11T04:22:42.053Z,23.14
2018-06-11T04:25:11.043Z,23.41
2018-06-11T04:27:39.964Z,23.38
2018-06-11T04:30:08.947Z,23.55
2018-06-11T04:32:37.901Z,23.44
2018-06-11T04:35:06.882Z,23.63
2018-06-11T04:37:35.807Z,23.79
2018-06-11T04:40:04.764Z,23.89
2018-06-11T04:42:33.714Z,23.69
2018-06-11T04:45:02.668Z,24.11
2018-06-11T04:47:31.602Z,24.34
2018-06-11T04:50:00.547Z,24.20
2018-06-11T04:52:29.486Z,24.95
2018-06-11T04:54:58.433Z,24.73
2018-06-11T04:57:27.343Z,25.08
2018-06-11T04:59:56.345Z,24.94
2018-06-11T05:02:25.281Z,25.67
2018-06-11T05:04:54.254Z,26.19
2018-06-11T05:07:23.171Z,26.31
2018-06-11T05:09:52.122Z,26.72
2018-06-11T05:12:21.057Z,26.05
2018-06-11T05:14:50.040Z,26.27
2018-06-11T05:17:18.967Z,26.56
2018-06-11T05:19:47.936Z,26.28
2018-06-11T05:22:16.842Z,26.37
2018-06-11T05:24:45.832Z,26.51
2018-06-11T05:27:14.762Z,26.66
2018-06-11T05:29:43.738Z,26.62
2018-06-11T05:32:12.662Z,26.60
2018-06-11T05:34:41.679Z,26.36
2018-06-11T05:37:10.586Z,26.83
2018-06-11T05:39:39.512Z,28.02
2018-06-11T05:42:08.478Z,29.30
2018-06-11T05:44:37.397Z,29.69
2018-06-11T05:47:06.382Z,30.12
2018-06-11T05:49:35.330Z,31.07
2018-06-11T05:52:04.333Z,30.92
2018-06-11T05:54:33.282Z,31.31
2018-06-11T05:57:02.249Z,31.74
2018-06-11T05:59:31.202Z,32.26
2018-06-11T06:02:00.242Z,32.03
2018-06-11T06:04:29.169Z,33.59
2018-06-11T06:06:58.185Z,35.11
2018-06-11T06:09:27.164Z,36.01
2018-06-11T06:11:56.270Z,32.95
2018-06-11T06:14:25.292Z,32.59
2018-06-11T06:16:54.253Z,32.38
2018-06-11T06:19:23.253Z,33.20
2018-06-11T06:21:52.253Z,34.55
2018-06-11T06:24:21.343Z,35.07
2018-06-11T06:26:50.324Z,33.37
2018-06-11T06:29:19.303Z,35.10
2018-06-11T06:31:48.295Z,36.81
2018-06-11T06:34:17.469Z,37.28
2018-06-11T06:36:46.424Z,37.19
2018-06-11T06:39:15.366Z,34.85
2018-06-11T06:41:44.364Z,35.14
2018-06-11T06:44:13.325Z,33.39
2018-06-11T06:46:42.342Z,35.82
2018-06-11T06:49:11.269Z,33.06
2018-06-11T06:51:40.254Z,31.56
2018-06-11T06:54:09.346Z,33.80
2018-06-11T06:56:38.297Z,35.38
2018-06-11T06:59:07.437Z,37.59
2018-06-11T07:01:36.368Z,40.27
2018-06-11T07:04:05.375Z,41.15
2018-06-11T07:06:34.346Z,41.61
2018-06-11T07:09:03.484Z,40.13
2018-06-11T07:11:32.418Z,35.24
2018-06-11T07:14:01.475Z,34.44
2018-06-11T07:16:30.448Z,33.68
2018-06-11T07:18:59.715Z,33.11
2018-06-11T07:21:28.652Z,32.36
2018-06-11T07:23:57.748Z,31.88
2018-06-11T07:26:26.725Z,31.42
2018-06-11T07:28:55.756Z,30.45
2018-06-11T07:31:24.856Z,30.85
2018-06-11T07:33:53.803Z,30.27
2018-06-11T07:36:22.730Z,30.09
2018-06-11T07:38:51.695Z,30.53
2018-06-11T07:41:20.646Z,28.79
2018-06-11T07:43:49.621Z,28.31
2018-06-11T07:46:18.638Z,29.48
2018-06-11T07:48:47.601Z,29.26
2018-06-11T07:51:16.549Z,29.28
2018-06-11T07:53:45.546Z,29.01
2018-06-11T07:56:14.614Z,29.00
2018-06-11T07:58:43.634Z,29.52
2018-06-11T08:01:12.565Z,29.00
2018-06-11T08:03:41.527Z,28.74
2018-06-11T08:06:10.461Z,29.13
2018-06-11T08:08:39.410Z,29.29
2018-06-11T08:11:08.397Z,28.97
2018-06-11T08:13:37.439Z,28.74
2018-06-11T08:16:06.476Z,29.29
2018-06-11T08:18:35.474Z,29.06
2018-06-11T08:21:04.448Z,29.53
2018-06-11T08:23:33.464Z,29.46
2018-06-11T08:26:02.390Z,28.26
2018-06-11T08:28:31.346Z,29.48
2018-06-11T08:31:00.282Z,30.25
2018-06-11T08:33:29.268Z,28.90
2018-06-11T08:35:58.212Z,28.83
2018-06-11T08:38:27.102Z,29.27
2018-06-11T08:40:56.178Z,29.34
2018-06-11T08:43:25.138Z,29.26
2018-06-11T08:45:54.079Z,29.49
2018-06-11T08:48:23.247Z,28.90
2018-06-11T08:50:52.261Z,28.64
2018-06-11T08:53:21.497Z,28.42
2018-06-11T08:55:50.800Z,28.49
2018-06-11T08:58:20.068Z,28.14
2018-06-11T09:00:49.511Z,27.54
2018-06-11T09:03:18.539Z,28.24
2018-06-11T09:05:47.529Z,28.18
2018-06-11T09:08:16.450Z,27.96
2018-06-11T09:10:45.523Z,28.33
2018-06-11T09:13:14.461Z,28.50
2018-06-11T09:15:43.449Z,27.96
2018-06-11T09:18:12.482Z,28.81
2018-06-11T09:20:41.415Z,29.99
2018-06-11T09:23:10.339Z,33.80
2018-06-11T09:25:39.385Z,34.76
2018-06-11T09:28:08.345Z,35.01
2018-06-11T09:30:37.318Z,34.50
2018-06-11T09:33:06.324Z,34.33
2018-06-11T09:35:35.346Z,34.05
2018-06-11T09:38:04.294Z,34.26
2018-06-11T09:40:33.330Z,32.64
2018-06-11T09:43:02.410Z,32.09
2018-06-11T09:45:35.122Z,30.30
2018-06-11T09:48:04.065Z,30.46
2018-06-11T09:50:33.047Z,30.78
2018-06-11T09:53:02.110Z,30.53
2018-06-11T09:55:31.080Z,29.73
2018-06-11T09:58:00.021Z,30.33
2018-06-11T10:00:33.030Z,29.67
2018-06-11T10:03:01.975Z,29.23
2018-06-11T10:05:30.943Z,29.99
2018-06-11T10:07:59.862Z,28.74
2018-06-11T10:10:28.948Z,28.95
2018-06-11T10:12:57.846Z,29.36
2018-06-11T10:15:26.855Z,29.47
2018-06-11T10:17:55.794Z,30.26
2018-06-11T10:20:24.756Z,30.58
2018-06-11T10:22:53.875Z,30.92
2018-06-11T10:25:23.073Z,29.77
2018-06-11T10:27:52.170Z,29.72
2018-06-11T10:30:21.273Z,29.90
2018-06-11T10:32:50.720Z,30.58
2018-06-11T10:35:19.955Z,29.54
2018-06-11T10:37:48.902Z,27.98
2018-06-11T10:40:17.915Z,28.23
2018-06-11T10:42:46.958Z,29.48
2018-06-11T10:45:15.995Z,30.35
2018-06-11T10:47:45.008Z,31.47
2018-06-11T10:50:14.062Z,30.51
2018-06-11T10:52:43.129Z,30.97
2018-06-11T10:55:12.133Z,31.73
2018-06-11T10:57:41.087Z,32.03
2018-06-11T11:00:10.102Z,31.03
2018-06-11T11:02:39.356Z,31.44
2018-06-11T11:05:08.561Z,30.72
2018-06-11T11:07:37.750Z,30.60
2018-06-11T11:10:06.954Z,30.53
2018-06-11T11:12:36.052Z,30.24
2018-06-11T11:15:05.042Z,29.99
2018-06-11T11:17:34.025Z,29.28
2018-06-11T11:20:03.127Z,30.24
2018-06-11T11:22:32.174Z,30.70
2018-06-11T11:25:01.123Z,30.79
2018-06-11T11:27:30.107Z,30.75
2018-06-11T11:29:59.153Z,31.37
2018-06-11T11:32:28.199Z,31.36
2018-06-11T11:34:57.138Z,31.08
2018-06-11T11:37:26.118Z,30.78
2018-06-11T11:39:55.093Z,30.91
2018-06-11T11:42:24.270Z,30.99
2018-06-11T11:44:53.314Z,30.36
2018-06-11T11:47:22.524Z,30.25
2018-06-11T11:49:51.454Z,30.10
2018-06-11T11:52:20.551Z,29.55
2018-06-11T11:54:49.501Z,29.22
2018-06-11T11:57:18.483Z,29.19
2018-06-11T11:59:47.479Z,29.23
2018-06-11T12:02:16.519Z,28.89
2018-06-11T12:04:45.631Z,29.60
2018-06-11T12:07:14.831Z,29.16
2018-06-11T12:09:43.977Z,29.24
2018-06-11T12:12:13.013Z,29.19
2018-06-11T12:14:41.957Z,28.81
2018-06-11T12:17:10.956Z,29.00
2018-06-11T12:19:39.886Z,28.84
2018-06-11T12:22:08.854Z,29.06
2018-06-11T12:24:37.830Z,28.51
2018-06-11T12:27:06.826Z,28.15
2018-06-11T12:29:35.747Z,28.51
2018-06-11T12:32:04.823Z,27.98
2018-06-11T12:34:34.106Z,27.67
2018-06-11T12:37:03.120Z,28.18
2018-06-11T12:39:32.096Z,27.80
2018-06-11T12:42:01.227Z,27.77
2018-06-11T12:44:30.226Z,28.31
2018-06-11T12:46:59.238Z,28.15
2018-06-11T12:49:28.471Z,27.96
2018-06-11T12:51:57.458Z,27.91
2018-06-11T12:54:26.483Z,27.23
2018-06-11T12:56:55.515Z,27.18
2018-06-11T12:59:24.444Z,26.75
2018-06-11T13:01:53.422Z,26.34
2018-06-11T13:04:22.404Z,26.31
2018-06-11T13:06:51.370Z,26.42
2018-06-11T13:09:20.308Z,25.87
2018-06-11T13:11:49.310Z,25.55
2018-06-11T13:14:18.255Z,25.37
2018-06-11T13:16:47.385Z,25.48
2018-06-11T13:19:16.340Z,25.67
2018-06-11T13:21:45.363Z,25.57
2018-06-11T13:24:14.286Z,25.07
2018-06-11T13:26:43.274Z,25.30
2018-06-11T13:29:12.235Z,25.14
2018-06-11T13:31:41.205Z,25.85
2018-06-11T13:34:10.186Z,25.89
2018-06-11T13:36:39.309Z,25.03
2018-06-11T13:39:09.400Z,25.51
2018-06-11T13:41:38.412Z,25.06
2018-06-11T13:44:07.418Z,25.12
2018-06-11T13:46:36.395Z,25.23
2018-06-11T13:49:05.334Z,24.66
2018-06-11T13:51:40.766Z,24.62
2018-06-11T13:54:09.734Z,24.98
2018-06-11T13:56:38.798Z,25.02
2018-06-11T13:59:07.724Z,25.06
2018-06-11T14:01:36.727Z,24.97
2018-06-11T14:04:05.723Z,25.37
2018-06-11T14:06:34.707Z,24.98
2018-06-11T14:09:04.000Z,24.80
2018-06-11T14:11:33.024Z,24.42
2018-06-11T14:14:02.132Z,24.46
2018-06-11T14:16:31.079Z,24.18
2018-06-11T14:19:00.066Z,24.11
2018-06-11T14:21:29.254Z,24.11
2018-06-11T14:23:58.558Z,24.22
2018-06-11T14:26:27.816Z,24.14
2018-06-11T14:28:57.177Z,23.99
2018-06-11T14:31:26.114Z,24.02
2018-06-11T14:33:55.105Z,23.63
2018-06-11T14:36:24.027Z,23.53
2018-06-11T14:38:53.093Z,23.79
2018-06-11T14:41:22.054Z,24.17
2018-06-11T14:43:51.348Z,23.79
2018-06-11T14:46:20.390Z,23.55
2018-06-11T14:48:49.351Z,23.91
2018-06-11T14:51:18.373Z,23.60
2018-06-11T14:53:47.446Z,23.07
2018-06-11T14:56:16.487Z,22.36
2018-06-11T14:58:45.487Z,23.25
2018-06-11T15:01:14.430Z,23.34
2018-06-11T15:03:43.496Z,23.56
2018-06-11T15:06:12.490Z,23.33
2018-06-11T15:08:41.491Z,23.80
2018-06-11T15:11:10.482Z,24.03
2018-06-11T15:13:39.509Z,24.26
2018-06-11T15:16:08.484Z,24.23
2018-06-11T15:18:37.699Z,24.35
2018-06-11T15:21:06.695Z,24.35
2018-06-11T15:23:35.916Z,24.25
2018-06-11T15:26:04.835Z,24.32
2018-06-11T15:28:33.836Z,24.31
2018-06-11T15:31:02.795Z,24.42
2018-06-11T15:33:31.842Z,24.29
2018-06-11T15:36:00.800Z,24.14
2018-06-11T15:38:29.807Z,24.15
2018-06-11T15:40:58.953Z,23.82
2018-06-11T15:43:27.947Z,23.69
2018-06-11T15:45:56.907Z,23.41
2018-06-11T15:48:25.910Z,23.65
2018-06-11T15:50:55.595Z,23.42
2018-06-11T15:53:24.591Z,23.56
2018-06-11T15:55:53.904Z,23.61
2018-06-11T15:58:22.894Z,23.60
2018-06-11T16:00:51.858Z,23.55
2018-06-11T16:03:20.888Z,23.55
2018-06-11T16:05:49.855Z,23.59
2018-06-11T16:08:18.865Z,23.52
2018-06-11T16:10:48.130Z,23.42
2018-06-11T16:13:17.124Z,23.41
2018-06-11T16:15:46.078Z,23.42
2018-06-11T16:18:15.103Z,23.48
2018-06-11T16:20:44.075Z,23.23
2018-06-11T16:23:13.071Z,23.25
2018-06-11T16:25:42.048Z,23.39
2018-06-11T16:28:11.074Z,23.22
2018-06-11T16:30:40.013Z,22.70
2018-06-11T16:33:09.058Z,22.46
2018-06-11T16:35:38.062Z,22.58
2018-06-11T16:38:07.014Z,22.87
2018-06-11T16:40:36.013Z,23.11
2018-06-11T16:43:05.071Z,22.75
2018-06-11T16:45:34.034Z,23.02
2018-06-11T16:48:03.044Z,23.06
2018-06-11T16:50:31.994Z,22.98
2018-06-11T16:53:00.967Z,23.15
2018-06-11T16:55:29.917Z,22.97
2018-06-11T16:57:59.020Z,22.82
2018-06-11T17:00:27.944Z,22.69
2018-06-11T17:02:56.954Z,22.82
2018-06-11T17:05:26.123Z,22.90
2018-06-11T17:07:55.126Z,23.23
2018-06-11T17:10:24.077Z,22.88
2018-06-11T17:12:53.022Z,22.95
2018-06-11T17:15:21.995Z,22.52
2018-06-11T17:17:50.946Z,22.64
2018-06-11T17:20:19.953Z,22.79
2018-06-11T17:22:48.945Z,22.83
2018-06-11T17:25:17.925Z,22.70
2018-06-11T17:27:46.871Z,22.90
2018-06-11T17:30:15.847Z,23.08
2018-06-11T17:32:44.795Z,23.21
2018-06-11T17:35:13.804Z,23.07
2018-06-11T17:37:42.749Z,22.16
2018-06-11T17:40:11.793Z,22.06
2018-06-11T17:42:40.739Z,22.26
2018-06-11T17:45:09.748Z,22.46
2018-06-11T17:47:38.719Z,22.49
2018-06-11T17:50:07.710Z,22.49
2018-06-11T17:52:36.723Z,22.57
2018-06-11T17:55:05.719Z,22.49
2018-06-11T17:57:34.818Z,22.52
2018-06-11T18:00:04.236Z,21.87
2018-06-11T18:02:33.209Z,21.93
2018-06-11T18:05:02.422Z,21.92
2018-06-11T18:07:31.359Z,22.10
2018-06-11T18:10:00.915Z,22.33
2018-06-11T18:12:29.863Z,22.08
2018-06-11T18:14:58.891Z,22.24
2018-06-11T18:17:27.863Z,22.15
2018-06-11T18:19:56.858Z,22.06
2018-06-11T18:22:25.824Z,22.43
2018-06-11T18:24:54.801Z,22.45
2018-06-11T18:27:23.762Z,22.40
2018-06-11T18:29:52.787Z,22.16
2018-06-11T18:32:21.972Z,22.25
2018-06-11T18:34:51.094Z,21.80
2018-06-11T18:37:20.125Z,21.66
2018-06-11T18:39:49.122Z,22.00
2018-06-11T18:42:18.074Z,21.85
2018-06-11T18:44:47.060Z,21.84
2018-06-11T18:47:16.043Z,21.72
2018-06-11T18:49:45.111Z,21.29
2018-06-11T18:52:14.034Z,21.22
2018-06-11T18:54:43.010Z,21.23
2018-06-11T18:57:12.010Z,21.45
2018-06-11T18:59:40.991Z,21.33
2018-06-11T19:02:09.955Z,21.14
2018-06-11T19:04:38.915Z,21.31
2018-06-11T19:07:07.908Z,21.01
2018-06-11T19:09:36.830Z,21.30
2018-06-11T19:12:06.062Z,21.36
2018-06-11T19:14:34.970Z,21.56
2018-06-11T19:17:04.352Z,21.77
2018-06-11T19:19:33.331Z,21.67
2018-06-11T19:22:02.356Z,21.54
2018-06-11T19:24:31.316Z,21.43
2018-06-11T19:27:00.305Z,21.61
2018-06-11T19:29:29.234Z,21.69
2018-06-11T19:31:58.254Z,21.67
2018-06-11T19:34:27.182Z,21.35
2018-06-11T19:36:56.170Z,21.71
2018-06-11T19:39:25.127Z,21.15
2018-06-11T19:41:54.106Z,21.56
2018-06-11T19:44:23.076Z,21.58
2018-06-11T19:46:52.077Z,21.59
2018-06-11T19:49:21.145Z,21.77
2018-06-11T19:51:50.165Z,21.52
2018-06-11T19:54:19.173Z,21.37
2018-06-11T19:56:48.163Z,21.50
2018-06-11T19:59:17.097Z,21.28
2018-06-11T20:01:46.081Z,21.18
2018-06-11T20:04:15.007Z,21.34
2018-06-11T20:06:44.011Z,21.28
2018-06-11T20:09:12.930Z,21.06
2018-06-11T20:11:42.574Z,21.27
2018-06-11T20:14:11.798Z,20.93
2018-06-11T20:16:41.057Z,20.80
2018-06-11T20:19:10.369Z,20.97
2018-06-11T20:21:39.719Z,21.19
2018-06-11T20:24:08.983Z,20.87
2018-06-11T20:26:38.254Z,20.98
2018-06-11T20:29:07.503Z,21.01
2018-06-11T20:31:36.809Z,20.83
2018-06-11T20:34:06.089Z,20.72
2018-06-11T20:36:35.364Z,20.76
2018-06-11T20:39:06.849Z,20.70
2018-06-11T20:41:35.841Z,20.70
2018-06-11T20:44:04.826Z,20.82
2018-06-11T20:46:33.773Z,20.64
2018-06-11T20:49:02.798Z,20.47
2018-06-11T20:51:31.818Z,20.19
2018-06-11T20:54:00.835Z,20.30
2018-06-11T20:56:30.099Z,20.46
2018-06-11T20:58:59.165Z,20.31
2018-06-11T21:01:28.115Z,20.28
2018-06-11T21:03:57.263Z,20.20
2018-06-11T21:06:26.223Z,20.36
2018-06-11T21:08:55.234Z,20.46
2018-06-11T21:11:24.202Z,20.40
2018-06-11T21:13:53.243Z,20.29
2018-06-11T21:16:22.194Z,20.42
2018-06-11T21:18:51.507Z,20.24
2018-06-11T21:21:20.482Z,19.71
2018-06-11T21:23:49.531Z,20.09
2018-06-11T21:26:18.478Z,19.95
2018-06-11T21:28:47.500Z,19.86
2018-06-11T21:31:16.443Z,20.02
2018-06-11T21:33:45.399Z,19.81
2018-06-11T21:36:14.354Z,19.75
2018-06-11T21:38:43.343Z,20.02
2018-06-11T21:41:12.407Z,19.82
2018-06-11T21:43:41.550Z,20.12
2018-06-11T21:46:10.482Z,19.85
2018-06-11T21:48:39.955Z,20.11
2018-06-11T21:51:08.884Z,19.92
2018-06-11T21:53:37.899Z,19.73
2018-06-11T21:56:06.866Z,19.77
2018-06-11T21:58:35.978Z,19.90
2018-06-11T22:01:04.954Z,19.91
2018-06-11T22:03:33.933Z,19.72
2018-06-11T22:06:02.916Z,19.80
2018-06-11T22:08:31.874Z,19.19
2018-06-11T22:11:00.882Z,19.03
2018-06-11T22:13:29.771Z,19.24
2018-06-11T22:15:58.743Z,19.29
2018-06-11T22:18:27.675Z,19.15
2018-06-11T22:20:56.651Z,19.31
2018-06-11T22:23:25.581Z,18.69
2018-06-11T22:25:54.562Z,18.93
2018-06-11T22:28:23.522Z,19.17
2018-06-11T22:30:52.503Z,19.21
2018-06-11T22:33:21.465Z,19.28
2018-06-11T22:35:50.453Z,19.12
2018-06-11T22:38:19.412Z,19.15
2018-06-11T22:40:48.426Z,19.15
2018-06-11T22:43:17.394Z,18.93
2018-06-11T22:45:46.407Z,18.93
2018-06-11T22:48:15.351Z,19.00
2018-06-11T22:50:44.351Z,18.82
2018-06-11T22:53:13.293Z,19.22
2018-06-11T22:55:42.282Z,19.46
2018-06-11T22:58:11.242Z,19.52
2018-06-11T23:00:40.246Z,19.82
2018-06-11T23:03:09.233Z,19.98
2018-06-11T23:05:38.203Z,20.10
2018-06-11T23:08:07.174Z,20.15
2018-06-11T23:10:36.170Z,19.87
2018-06-11T23:13:05.086Z,19.68
2018-06-11T23:15:34.035Z,19.38
2018-06-11T23:18:03.009Z,19.24
2018-06-11T23:20:32.044Z,19.45
2018-06-11T23:23:01.056Z,19.47
2018-06-11T23:25:30.017Z,19.48
2018-06-11T23:27:59.001Z,19.86
2018-06-11T23:30:27.942Z,19.73
2018-06-11T23:32:56.956Z,19.68
2018-06-11T23:35:25.894Z,19.69
2018-06-11T23:37:54.868Z,19.64
2018-06-11T23:40:23.800Z,19.86
2018-06-11T23:42:52.767Z,19.74
2018-06-11T23:45:21.702Z,19.79
2018-06-11T23:47:50.686Z,19.68
2018-06-11T23:50:19.644Z,19.67
2018-06-11T23:52:48.622Z,19.65
2018-06-11T23:55:17.563Z,19.11
2018-06-11T23:57:46.524Z,19.07
